Time;durP1;ratioP1;P1;durP2;ratioP2;P2;SDS_P1;SDS_P2;PMS_P1;PMS_P2;Temp;Humidity;BMP_temperature;BMP_pressure;BME280_temperature;BME280_humidity;BME280_pressure;Samples;Min_cycle;Max_cycle;Signal;HPM_P1;HPM_P2
2023/09/12 00:01:32;;;;;;;6.40;3.75;;;20.60;87.80;;;;;;5073968;28;20052;-80
2023/09/12 00:03:59;;;;;;;5.68;3.50;;;20.60;87.80;;;;;;5080259;28;20064;-79
2023/09/12 00:06:24;;;;;;;4.72;3.22;;;20.60;87.90;;;;;;5080129;28;20048;-79
2023/09/12 00:08:52;;;;;;;5.70;3.63;;;20.50;87.90;;;;;;5084750;28;20460;-79
2023/09/12 00:11:18;;;;;;;4.32;2.70;;;20.60;88.00;;;;;;5082964;28;20495;-79
2023/09/12 00:13:44;;;;;;;4.20;2.67;;;20.50;88.00;;;;;;5079067;28;20463;-78
2023/09/12 00:16:10;;;;;;;5.03;3.28;;;20.50;88.10;;;;;;5061382;28;20040;-78
2023/09/12 00:18:37;;;;;;;4.30;2.90;;;20.50;88.10;;;;;;5077963;28;20041;-79
2023/09/12 00:21:02;;;;;;;4.25;2.63;;;20.50;88.20;;;;;;5075317;28;20045;-78
2023/09/12 00:23:29;;;;;;;4.60;3.00;;;20.50;88.20;;;;;;5078469;28;20044;-79
2023/09/12 00:25:54;;;;;;;3.80;2.50;;;20.40;88.20;;;;;;5075490;28;20037;-78
2023/09/12 00:28:20;;;;;;;4.03;2.65;;;20.40;88.20;;;;;;5074915;28;20044;-78
2023/09/12 00:30:46;;;;;;;3.58;2.60;;;20.40;88.30;;;;;;5076402;28;20036;-78
2023/09/12 00:33:12;;;;;;;4.32;2.85;;;20.40;88.30;;;;;;5055507;28;20411;-78
2023/09/12 00:35:38;;;;;;;4.65;3.10;;;20.40;88.30;;;;;;5042702;28;20048;-78
2023/09/12 00:38:04;;;;;;;5.20;3.17;;;20.40;88.30;;;;;;5075415;28;20101;-78
2023/09/12 00:40:30;;;;;;;4.53;2.88;;;20.40;88.40;;;;;;5058575;28;20033;-78
2023/09/12 00:42:56;;;;;;;5.35;3.30;;;20.40;88.40;;;;;;5076414;28;20533;-78
2023/09/12 00:45:22;;;;;;;4.47;3.13;;;20.40;88.40;;;;;;5075130;28;20040;-78
2023/09/12 00:47:49;;;;;;;4.50;3.10;;;20.40;88.50;;;;;;5078335;28;20394;-78
2023/09/12 00:50:16;;;;;;;6.40;3.75;;;20.40;88.50;;;;;;5075255;28;20046;-79
2023/09/12 00:52:43;;;;;;;5.47;3.45;;;20.30;88.50;;;;;;5077937;28;20036;-78
2023/09/12 00:55:09;;;;;;;5.47;3.60;;;20.30;88.50;;;;;;5077001;28;20452;-78
2023/09/12 00:57:35;;;;;;;4.93;3.20;;;20.30;88.50;;;;;;5077865;28;20085;-78
2023/09/12 01:00:10;;;;;;;4.90;2.95;;;20.30;88.50;;;;;;5072596;28;20049;-78
2023/09/12 01:02:40;;;;;;;5.60;3.50;;;20.30;88.50;;;;;;5075239;28;20490;-78
2023/09/12 01:05:08;;;;;;;6.53;4.20;;;20.30;88.50;;;;;;5075982;28;20036;-78
2023/09/12 01:07:35;;;;;;;4.95;3.72;;;20.30;88.50;;;;;;5073640;28;20043;-78
2023/09/12 01:10:02;;;;;;;4.43;3.00;;;20.30;88.50;;;;;;5054726;28;20406;-78
2023/09/12 01:12:29;;;;;;;4.68;3.08;;;20.20;88.60;;;;;;5057962;28;20036;-78
2023/09/12 01:14:55;;;;;;;5.65;3.85;;;20.20;88.60;;;;;;5073552;28;20033;-77
2023/09/12 01:17:22;;;;;;;4.90;3.17;;;20.20;88.70;;;;;;5056752;28;20051;-77
2023/09/12 01:19:48;;;;;;;4.93;3.40;;;20.20;88.80;;;;;;5074045;28;20402;-78
2023/09/12 01:22:44;;;;;;;4.30;2.67;;;20.20;88.80;;;;;;5073840;28;20037;-78
2023/09/12 01:25:32;;;;;;;5.47;3.58;;;20.20;88.90;;;;;;5074507;28;20100;-77
2023/09/12 01:28:02;;;;;;;4.72;2.67;;;20.10;88.90;;;;;;5072660;28;20059;-77
2023/09/12 01:30:31;;;;;;;3.92;2.58;;;20.10;88.90;;;;;;5073162;28;20041;-78
2023/09/12 01:32:57;;;;;;;5.53;3.40;;;20.00;88.90;;;;;;5074653;28;20047;-78
2023/09/12 01:35:22;;;;;;;5.85;3.72;;;20.00;89.00;;;;;;5074950;28;20041;-78
2023/09/12 01:37:48;;;;;;;4.93;3.13;;;20.00;89.10;;;;;;5075691;28;20410;-77
2023/09/12 01:40:15;;;;;;;7.57;3.47;;;19.90;89.00;;;;;;5073501;28;20136;-78
2023/09/12 01:42:44;;;;;;;4.25;2.60;;;19.90;89.00;;;;;;5075382;28;20048;-78
2023/09/12 01:45:14;;;;;;;6.18;3.58;;;19.90;89.10;;;;;;5056538;28;20063;-77
2023/09/12 01:47:41;;;;;;;4.93;3.10;;;19.90;89.10;;;;;;5075523;28;20059;-77
2023/09/12 01:50:12;;;;;;;5.43;3.38;;;19.80;89.10;;;;;;5055330;28;20135;-78
2023/09/12 01:52:39;;;;;;;5.80;3.88;;;19.80;89.10;;;;;;5071149;28;20041;-78
2023/09/12 01:55:07;;;;;;;6.18;3.00;;;19.80;89.20;;;;;;5071242;28;20398;-78
2023/09/12 01:57:33;;;;;;;3.25;2.40;;;19.80;89.20;;;;;;5075520;28;20064;-77
2023/09/12 01:59:59;;;;;;;3.88;2.50;;;19.80;89.20;;;;;;5073358;28;20055;-77
2023/09/12 02:02:24;;;;;;;4.72;3.08;;;19.70;89.20;;;;;;5072672;28;20040;-78
2023/09/12 02:05:18;;;;;;;5.07;3.20;;;19.70;89.20;;;;;;5075444;28;20051;-78
2023/09/12 02:07:44;;;;;;;7.28;3.85;;;19.70;89.20;;;;;;5072155;28;20052;-78
2023/09/12 02:10:10;;;;;;;4.97;3.20;;;19.70;89.30;;;;;;5072536;28;20128;-77
2023/09/12 02:12:36;;;;;;;7.40;3.78;;;19.70;89.30;;;;;;5073712;28;20086;-77
2023/09/12 02:15:03;;;;;;;6.40;3.65;;;19.60;89.30;;;;;;5074913;28;20475;-78
2023/09/12 02:17:28;;;;;;;5.88;3.58;;;19.60;89.30;;;;;;5072803;28;20037;-78
2023/09/12 02:19:54;;;;;;;5.90;3.60;;;19.50;89.30;;;;;;5072131;28;20043;-78
2023/09/12 02:22:20;;;;;;;4.93;2.90;;;19.60;89.30;;;;;;5070564;28;20040;-77
2023/09/12 02:24:46;;;;;;;4.15;2.63;;;19.50;89.30;;;;;;5072827;28;20140;-77
2023/09/12 02:27:11;;;;;;;3.75;2.70;;;19.50;89.30;;;;;;5072925;28;20041;-78
2023/09/12 02:29:39;;;;;;;5.78;3.45;;;19.50;89.40;;;;;;5070896;28;20048;-77
2023/09/12 02:32:05;;;;;;;5.35;3.03;;;19.50;89.40;;;;;;5070915;28;20064;-78
2023/09/12 02:34:32;;;;;;;3.80;2.65;;;19.40;89.40;;;;;;5070982;28;20045;-77
2023/09/12 02:36:57;;;;;;;3.20;2.20;;;19.40;89.50;;;;;;5070470;28;20052;-77
2023/09/12 02:39:23;;;;;;;4.78;2.50;;;19.40;89.50;;;;;;5072928;28;20040;-78
2023/09/12 02:41:49;;;;;;;3.90;2.40;;;19.40;89.50;;;;;;5073630;28;20068;-77
2023/09/12 02:44:15;;;;;;;5.68;3.05;;;19.40;89.50;;;;;;5073165;28;20044;-77
2023/09/12 02:46:41;;;;;;;4.80;3.10;;;19.40;89.50;;;;;;5068748;28;20040;-78
2023/09/12 02:49:06;;;;;;;4.00;2.60;;;19.40;89.50;;;;;;5055248;28;20449;-77
2023/09/12 02:51:32;;;;;;;5.30;3.03;;;19.30;89.50;;;;;;5070973;28;20036;-78
2023/09/12 02:53:58;;;;;;;4.13;3.13;;;19.40;89.60;;;;;;5073224;28;20096;-78
2023/09/12 02:56:24;;;;;;;3.95;2.13;;;19.30;89.50;;;;;;5073654;28;20037;-77
2023/09/12 02:58:49;;;;;;;4.07;2.90;;;19.20;89.50;;;;;;5071029;28;20044;-77
2023/09/12 03:01:20;;;;;;;6.00;3.30;;;19.30;89.60;;;;;;5054387;28;20036;-77
2023/09/12 03:03:47;;;;;;;3.80;2.35;;;19.20;89.60;;;;;;5069496;28;20128;-77
2023/09/12 03:06:14;;;;;;;4.75;3.08;;;19.20;89.60;;;;;;5072360;28;20402;-77
2023/09/12 03:08:40;;;;;;;4.40;3.13;;;19.20;89.60;;;;;;5073966;28;20048;-77
2023/09/12 03:11:07;;;;;;;3.67;2.53;;;19.20;89.60;;;;;;5073483;28;20128;-77
2023/09/12 03:13:33;;;;;;;3.38;2.38;;;19.20;89.70;;;;;;5076668;28;20119;-77
2023/09/12 03:16:00;;;;;;;4.80;3.20;;;19.10;89.60;;;;;;5075553;28;20037;-77
2023/09/12 03:18:26;;;;;;;5.28;3.35;;;19.10;89.60;;;;;;5076067;28;20045;-77
2023/09/12 03:20:52;;;;;;;5.00;3.22;;;19.20;89.70;;;;;;5077430;28;20486;-77
2023/09/12 03:23:19;;;;;;;5.45;3.15;;;19.10;89.70;;;;;;5077515;28;20047;-77
2023/09/12 03:25:45;;;;;;;4.05;2.42;;;19.10;89.60;;;;;;5056077;28;20040;-77
2023/09/12 03:28:11;;;;;;;4.22;2.75;;;19.10;90.10;;;;;;5076854;28;20056;-77
2023/09/12 03:30:38;;;;;;;3.88;2.53;;;19.10;89.70;;;;;;5074942;28;20498;-77
2023/09/12 03:33:04;;;;;;;4.47;2.83;;;19.10;89.70;;;;;;5074284;28;20482;-77
2023/09/12 03:35:31;;;;;;;5.80;3.50;;;19.10;89.70;;;;;;5074797;28;20075;-77
2023/09/12 03:37:57;;;;;;;4.25;2.78;;;19.10;89.70;;;;;;5075597;28;20037;-77
2023/09/12 03:40:23;;;;;;;4.25;2.97;;;19.10;89.70;;;;;;5074692;28;20052;-77
2023/09/12 03:42:48;;;;;;;4.30;2.95;;;19.10;89.70;;;;;;5077546;28;20040;-77
2023/09/12 03:45:14;;;;;;;4.00;2.50;;;19.10;89.80;;;;;;5076524;28;20394;-77
2023/09/12 03:47:40;;;;;;;4.63;2.83;;;19.10;89.80;;;;;;5073750;28;20113;-78
2023/09/12 03:50:06;;;;;;;4.35;2.78;;;19.10;89.70;;;;;;5075201;28;20463;-77
2023/09/12 03:52:32;;;;;;;4.22;2.40;;;19.10;89.70;;;;;;5070039;28;20039;-77
2023/09/12 03:55:00;;;;;;;4.15;2.42;;;19.10;89.70;;;;;;5075804;28;20036;-77
2023/09/12 03:57:26;;;;;;;3.00;2.15;;;19.10;89.60;;;;;;5073592;28;20506;-78
2023/09/12 03:59:52;;;;;;;2.90;2.20;;;19.10;89.60;;;;;;5076392;28;20041;-78
2023/09/12 04:02:18;;;;;;;3.30;2.10;;;19.10;89.60;;;;;;5054471;28;20041;-78
2023/09/12 04:04:44;;;;;;;3.50;2.08;;;19.10;89.60;;;;;;5074525;28;20044;-78
2023/09/12 04:07:10;;;;;;;4.93;3.28;;;19.20;89.70;;;;;;5074757;28;20040;-77
2023/09/12 04:09:46;;;;;;;3.95;2.88;;;19.10;89.70;;;;;;5073666;28;20072;-77
2023/09/12 04:12:12;;;;;;;4.28;2.80;;;19.00;89.80;;;;;;5073966;28;20127;-78
2023/09/12 04:14:37;;;;;;;4.70;3.17;;;19.00;89.80;;;;;;5077634;28;20114;-77
2023/09/12 04:17:03;;;;;;;5.97;3.67;;;19.00;89.90;;;;;;5058718;28;20043;-78
2023/09/12 04:19:31;;;;;;;5.68;3.67;;;19.00;89.90;;;;;;5057704;28;20644;-77
2023/09/12 04:21:57;;;;;;;3.95;2.53;;;19.00;90.00;;;;;;5077298;28;20490;-77
2023/09/12 04:24:23;;;;;;;5.38;3.22;;;19.00;90.00;;;;;;5076426;28;20068;-77
2023/09/12 04:26:48;;;;;;;4.70;3.25;;;19.00;90.00;;;;;;5058451;28;20045;-78
2023/09/12 04:29:14;;;;;;;3.83;2.22;;;19.00;90.00;;;;;;5073851;28;20486;-77
2023/09/12 04:31:40;;;;;;;5.40;2.88;;;19.00;90.00;;;;;;5077086;28;20041;-78
2023/09/12 04:34:05;;;;;;;3.45;2.30;;;19.00;90.00;;;;;;5073628;28;20040;-77
2023/09/12 04:36:34;;;;;;;3.40;1.98;;;19.00;90.00;;;;;;5058537;28;20056;-77
2023/09/12 04:39:00;;;;;;;3.08;2.10;;;19.00;90.00;;;;;;5057797;28;20044;-78
2023/09/12 04:41:26;;;;;;;5.15;3.00;;;19.00;89.90;;;;;;5073083;28;20557;-77
2023/09/12 04:43:51;;;;;;;4.13;2.78;;;19.10;90.00;;;;;;5068953;28;20067;-77
2023/09/12 04:46:17;;;;;;;4.22;2.67;;;19.10;89.90;;;;;;5071962;28;20049;-77
2023/09/12 04:48:43;;;;;;;4.40;2.83;;;19.10;89.90;;;;;;5073937;28;20506;-77
2023/09/12 04:51:09;;;;;;;4.93;3.30;;;19.10;90.20;;;;;;5070612;28;20039;-77
2023/09/12 04:53:35;;;;;;;4.70;3.00;;;19.10;89.90;;;;;;5073384;28;20068;-77
2023/09/12 04:56:02;;;;;;;3.78;2.47;;;19.20;89.90;;;;;;5071054;28;20064;-78
2023/09/12 04:58:29;;;;;;;4.10;2.50;;;19.20;89.90;;;;;;5070801;28;20044;-77
2023/09/12 05:00:55;;;;;;;3.17;2.00;;;19.20;89.90;;;;;;5071488;28;20115;-77
2023/09/12 05:03:22;;;;;;;3.40;2.10;;;19.20;90.00;;;;;;5071638;28;20049;-77
2023/09/12 05:05:48;;;;;;;3.70;2.30;;;19.20;90.00;;;;;;5073446;28;20045;-77
2023/09/12 05:08:14;;;;;;;3.13;2.17;;;19.20;90.00;;;;;;5070632;28;20044;-77
2023/09/12 05:10:40;;;;;;;4.05;2.60;;;19.20;90.00;;;;;;5053209;28;20037;-77
2023/09/12 05:13:06;;;;;;;5.53;3.30;;;19.20;90.00;;;;;;5073143;28;20032;-77
2023/09/12 05:15:31;;;;;;;5.03;2.83;;;19.20;90.00;;;;;;5054163;28;20044;-77
2023/09/12 05:17:57;;;;;;;5.35;3.28;;;19.20;90.00;;;;;;5074279;28;20043;-78
2023/09/12 05:20:23;;;;;;;6.05;2.80;;;19.30;90.00;;;;;;5076389;28;20044;-76
2023/09/12 05:22:48;;;;;;;5.85;3.15;;;19.20;90.00;;;;;;5072898;28;20037;-76
2023/09/12 05:25:14;;;;;;;3.38;2.20;;;19.20;90.10;;;;;;5070076;28;20044;-76
2023/09/12 05:27:40;;;;;;;4.80;3.08;;;19.20;90.10;;;;;;5073178;28;20044;-76
2023/09/12 05:30:06;;;;;;;4.57;2.28;;;19.20;90.20;;;;;;5072901;28;20052;-76
2023/09/12 05:32:32;;;;;;;4.72;2.63;;;19.20;90.20;;;;;;5070548;28;20044;-76
2023/09/12 05:34:58;;;;;;;4.78;2.60;;;19.20;90.20;;;;;;5073121;28;20286;-76
2023/09/12 05:37:23;;;;;;;3.70;2.50;;;19.20;90.20;;;;;;5053409;28;20115;-76
2023/09/12 05:39:49;;;;;;;4.68;2.78;;;19.30;90.20;;;;;;5072871;28;20375;-76
2023/09/12 05:42:20;;;;;;;6.68;3.38;;;19.20;90.20;;;;;;5069516;28;20501;-76
2023/09/12 05:44:46;;;;;;;;;;;19.20;90.20;;;;;;5073144;28;20127;-76
2023/09/12 05:47:12;;;;;;;5.28;3.30;;;19.30;90.20;;;;;;5072532;28;20003;-76
2023/09/12 05:49:38;;;;;;;7.22;3.45;;;19.30;90.20;;;;;;5054032;28;20469;-76
2023/09/12 05:52:04;;;;;;;5.43;3.15;;;19.30;90.20;;;;;;5053330;28;20070;-76
2023/09/12 05:54:30;;;;;;;3.47;2.25;;;19.30;90.20;;;;;;5073111;28;20044;-76
2023/09/12 05:56:55;;;;;;;3.80;2.40;;;19.20;90.20;;;;;;5072573;28;20036;-76
2023/09/12 05:59:21;;;;;;;4.68;2.67;;;19.30;90.20;;;;;;5070240;28;20035;-76
2023/09/12 06:01:48;;;;;;;5.28;3.17;;;19.20;90.20;;;;;;5053545;28;20496;-76
2023/09/12 06:04:14;;;;;;;5.68;2.90;;;19.30;90.20;;;;;;5069320;28;20086;-76
2023/09/12 06:06:40;;;;;;;4.30;2.50;;;19.30;90.30;;;;;;5070451;28;20080;-76
2023/09/12 06:09:06;;;;;;;5.95;3.35;;;19.30;90.20;;;;;;5036566;28;20037;-76
2023/09/12 06:11:32;;;;;;;5.72;3.60;;;19.40;90.30;;;;;;5069229;28;20040;-76
2023/09/12 06:13:57;;;;;;;4.40;2.83;;;19.40;90.20;;;;;;5072117;28;20127;-76
2023/09/12 06:16:24;;;;;;;6.65;3.90;;;19.40;90.20;;;;;;5072345;28;20040;-76
2023/09/12 06:18:49;;;;;;;5.32;3.25;;;19.40;90.30;;;;;;5072535;28;20048;-76
2023/09/12 06:21:15;;;;;;;5.63;3.30;;;19.40;90.30;;;;;;5070736;28;20437;-76
2023/09/12 06:23:41;;;;;;;6.70;4.25;;;19.40;90.30;;;;;;5069961;28;20044;-76
2023/09/12 06:26:06;;;;;;;5.28;3.00;;;19.40;90.30;;;;;;5072538;28;20040;-76
2023/09/12 06:28:32;;;;;;;5.03;2.97;;;19.40;90.30;;;;;;5068850;28;20518;-76
2023/09/12 06:30:58;;;;;;;5.20;2.97;;;19.40;90.30;;;;;;5072186;28;20040;-76
2023/09/12 06:33:26;;;;;;;5.05;3.05;;;19.50;90.40;;;;;;5069635;28;20422;-76
2023/09/12 06:35:52;;;;;;;7.07;3.83;;;19.50;90.30;;;;;;5069378;28;20060;-76
2023/09/12 06:38:21;;;;;;;6.25;3.70;;;19.50;90.30;;;;;;5069014;28;20117;-76
2023/09/12 06:40:47;;;;;;;7.72;4.40;;;19.50;90.30;;;;;;5072378;28;20029;-76
2023/09/12 06:43:13;;;;;;;5.22;3.10;;;19.50;90.30;;;;;;5071782;28;20033;-76
2023/09/12 06:45:41;;;;;;;5.85;3.30;;;19.50;90.30;;;;;;5072292;28;20119;-76
2023/09/12 06:48:07;;;;;;;7.22;3.95;;;19.50;90.30;;;;;;5054051;28;20047;-76
2023/09/12 06:50:33;;;;;;;6.22;4.00;;;19.50;90.30;;;;;;5057447;28;20119;-75
2023/09/12 06:52:58;;;;;;;9.00;5.32;;;19.50;90.40;;;;;;5075930;28;20041;-76
2023/09/12 06:55:24;;;;;;;6.15;3.42;;;19.50;90.40;;;;;;5072613;28;20037;-76
2023/09/12 06:57:50;;;;;;;6.70;3.92;;;19.60;90.40;;;;;;5073420;28;20036;-76
2023/09/12 07:00:16;;;;;;;7.55;4.30;;;19.60;90.40;;;;;;5075663;28;20045;-76
2023/09/12 07:02:42;;;;;;;6.95;4.78;;;19.60;90.40;;;;;;5080264;28;20044;-75
2023/09/12 07:05:08;;;;;;;8.20;4.60;;;19.60;90.40;;;;;;5083042;28;20055;-75
2023/09/12 07:07:34;;;;;;;8.15;5.38;;;19.70;90.40;;;;;;5062294;28;20123;-76
2023/09/12 07:10:00;;;;;;;7.95;4.88;;;19.70;90.40;;;;;;5077659;28;20068;-76
2023/09/12 07:12:28;;;;;;;7.53;4.32;;;19.70;90.30;;;;;;5081054;28;20040;-76
2023/09/12 07:14:55;;;;;;;8.43;5.05;;;19.80;90.40;;;;;;5076653;28;20052;-76
2023/09/12 07:17:21;;;;;;;6.18;3.72;;;19.80;90.30;;;;;;5044869;28;20115;-75
2023/09/12 07:19:47;;;;;;;7.60;4.22;;;19.80;90.30;;;;;;5080101;28;20078;-75
2023/09/12 07:22:13;;;;;;;8.00;4.78;;;19.90;90.40;;;;;;5079867;28;20037;-76
2023/09/12 07:24:39;;;;;;;9.45;4.95;;;19.90;90.30;;;;;;5080831;28;20045;-75
2023/09/12 07:27:04;;;;;;;6.47;3.90;;;19.90;90.30;;;;;;5078501;28;20502;-75
2023/09/12 07:29:30;;;;;;;5.47;3.70;;;20.00;90.30;;;;;;5077213;28;20490;-76
2023/09/12 07:31:56;;;;;;;6.60;4.28;;;20.00;90.20;;;;;;5080046;28;20036;-76
2023/09/12 07:34:23;;;;;;;7.35;4.35;;;20.00;90.20;;;;;;5075261;28;20406;-75
2023/09/12 07:36:48;;;;;;;6.63;4.15;;;20.10;90.30;;;;;;5077249;28;20045;-75
2023/09/12 07:39:14;;;;;;;8.35;4.75;;;20.10;90.30;;;;;;5078792;28;20559;-75
2023/09/12 07:41:40;;;;;;;8.68;4.95;;;20.10;90.30;;;;;;5075628;28;20041;-75
2023/09/12 07:44:07;;;;;;;7.38;4.80;;;20.10;90.30;;;;;;5076742;28;20063;-75
2023/09/12 07:46:33;;;;;;;8.70;4.82;;;20.20;90.30;;;;;;5079359;28;20111;-75
2023/09/12 07:48:59;;;;;;;6.88;4.43;;;20.20;90.20;;;;;;5074751;28;20036;-76
2023/09/12 07:51:25;;;;;;;6.68;3.90;;;20.20;90.20;;;;;;5054799;28;20508;-76
2023/09/12 07:53:50;;;;;;;6.80;3.95;;;20.20;90.20;;;;;;5078633;28;20374;-75
2023/09/12 07:56:16;;;;;;;8.80;5.47;;;20.30;90.30;;;;;;5075911;28;20067;-76
2023/09/12 07:58:42;;;;;;;7.03;4.40;;;20.30;90.30;;;;;;5071619;28;20040;-75
2023/09/12 08:01:09;;;;;;;6.95;4.40;;;20.30;90.20;;;;;;5072663;28;20041;-75
2023/09/12 08:03:36;;;;;;;5.07;3.13;;;20.30;90.30;;;;;;5074436;28;20407;-75
2023/09/12 08:06:03;;;;;;;6.90;3.92;;;20.20;90.30;;;;;;5071665;28;20560;-75
2023/09/12 08:08:29;;;;;;;5.90;3.53;;;20.20;90.30;;;;;;5074251;28;20505;-75
2023/09/12 08:10:54;;;;;;;6.53;4.10;;;20.20;90.40;;;;;;5056085;28;20087;-75
2023/09/12 08:13:21;;;;;;;7.57;4.68;;;20.30;90.40;;;;;;5073945;28;20041;-75
2023/09/12 08:15:47;;;;;;;9.10;5.55;;;20.30;90.40;;;;;;5071703;28;20041;-75
2023/09/12 08:18:12;;;;;;;8.93;5.55;;;20.30;90.40;;;;;;5072145;28;20091;-75
2023/09/12 08:20:38;;;;;;;6.18;3.65;;;20.40;90.40;;;;;;5071933;28;20086;-75
2023/09/12 08:23:04;;;;;;;6.95;4.20;;;20.50;90.40;;;;;;5073738;28;20037;-75
2023/09/12 08:25:29;;;;;;;10.27;5.35;;;20.60;90.30;;;;;;5071411;28;20486;-75
2023/09/12 08:27:55;;;;;;;11.40;6.57;;;20.60;90.20;;;;;;5073311;28;20079;-75
2023/09/12 08:30:22;;;;;;;7.60;4.68;;;20.60;90.00;;;;;;5072793;28;20037;-75
2023/09/12 08:32:48;;;;;;;6.85;4.30;;;20.70;90.00;;;;;;5073368;28;20037;-75
2023/09/12 08:35:14;;;;;;;7.78;4.47;;;20.70;90.10;;;;;;5076807;28;20178;-75
2023/09/12 08:37:41;;;;;;;7.90;4.82;;;20.70;90.10;;;;;;5076888;28;20048;-76
2023/09/12 08:40:10;;;;;;;7.68;4.30;;;20.80;90.10;;;;;;5073614;28;20044;-75
2023/09/12 08:42:44;;;;;;;7.97;4.68;;;20.90;90.10;;;;;;5076898;28;20040;-76
2023/09/12 08:45:16;;;;;;;6.85;4.13;;;20.90;90.00;;;;;;5058108;28;20094;-75
2023/09/12 08:47:45;;;;;;;6.90;4.30;;;20.90;90.00;;;;;;5074181;28;20040;-75
2023/09/12 08:50:13;;;;;;;6.03;3.75;;;20.90;90.00;;;;;;5075249;28;20048;-75
2023/09/12 08:52:41;;;;;;;7.50;4.35;;;21.00;90.00;;;;;;5071508;28;20554;-75
2023/09/12 08:55:08;;;;;;;5.90;3.67;;;21.00;90.00;;;;;;5071143;28;20048;-75
2023/09/12 08:57:37;;;;;;;8.02;4.68;;;21.10;89.90;;;;;;5070451;28;20068;-75
2023/09/12 09:02:43;;;;;;;7.65;4.53;;;21.30;89.70;;;;;;5071579;28;20469;-75
2023/09/12 09:05:10;;;;;;;7.40;4.90;;;21.40;89.40;;;;;;5073624;28;20124;-75
2023/09/12 09:07:37;;;;;;;5.25;3.60;;;21.40;89.30;;;;;;5070450;28;20113;-75
2023/09/12 09:10:05;;;;;;;5.47;3.47;;;21.30;89.30;;;;;;5070082;28;20093;-75
2023/09/12 09:12:32;;;;;;;6.90;3.72;;;21.30;89.70;;;;;;5073395;28;20046;-75
2023/09/12 09:14:58;;;;;;;7.70;4.03;;;21.30;89.70;;;;;;5073524;28;20037;-75
2023/09/12 09:17:24;;;;;;;5.68;3.20;;;21.40;89.70;;;;;;5073136;28;20041;-75
2023/09/12 09:19:50;;;;;;;5.97;3.55;;;21.50;89.40;;;;;;5053089;28;20037;-75
2023/09/12 09:22:16;;;;;;;6.38;4.15;;;21.50;89.30;;;;;;5073006;28;20040;-75
2023/09/12 09:24:41;;;;;;;4.30;2.85;;;21.60;89.20;;;;;;5073572;28;20044;-74
2023/09/12 09:27:07;;;;;;;4.78;3.15;;;21.70;89.20;;;;;;5073214;28;20398;-75
2023/09/12 09:29:47;;;;;;;5.85;3.80;;;21.70;89.10;;;;;;5055247;28;20383;-75
2023/09/12 09:32:18;;;;;;;6.97;4.22;;;21.80;88.90;;;;;;5053634;28;20044;-75
2023/09/12 09:34:44;;;;;;;;;;;21.80;88.60;;;;;;5071973;28;20044;-74
2023/09/12 09:37:09;;;;;;;3.75;2.53;;;21.80;88.40;;;;;;5073100;28;19920;-74
2023/09/12 09:39:35;;;;;;;4.50;3.00;;;21.80;88.50;;;;;;5072243;28;20547;-74
2023/09/12 09:42:01;;;;;;;4.38;2.67;;;21.80;88.50;;;;;;5071177;28;20052;-74
2023/09/12 09:44:28;;;;;;;3.78;2.33;;;21.90;88.60;;;;;;5070351;28;20459;-74
2023/09/12 09:47:00;;;;;;;4.60;2.72;;;21.90;88.60;;;;;;5070087;28;20071;-74
2023/09/12 09:49:25;;;;;;;3.78;2.35;;;22.00;88.50;;;;;;5068352;28;20089;-75
2023/09/12 09:51:55;;;;;;;5.63;3.13;;;22.00;88.40;;;;;;5072642;28;20040;-74
2023/09/12 09:54:25;;;;;;;3.97;2.50;;;21.90;88.30;;;;;;5071997;28;20048;-74
2023/09/12 09:56:57;;;;;;;4.80;2.92;;;22.00;88.40;;;;;;5072712;28;20066;-74
2023/09/12 09:59:25;;;;;;;4.60;2.97;;;22.00;88.40;;;;;;5070349;28;20048;-74
2023/09/12 10:01:57;;;;;;;5.03;3.17;;;22.00;88.40;;;;;;5072261;28;20123;-74
2023/09/12 10:04:23;;;;;;;5.15;3.45;;;22.00;88.20;;;;;;5073376;28;20033;-75
2023/09/12 10:06:49;;;;;;;4.55;2.72;;;22.00;88.10;;;;;;5055184;28;20135;-75
2023/09/12 10:09:16;;;;;;;4.65;3.17;;;22.00;88.10;;;;;;5072643;28;20550;-76
2023/09/12 10:11:46;;;;;;;5.30;3.17;;;22.00;88.00;;;;;;5073424;28;20037;-75
2023/09/12 10:14:15;;;;;;;5.30;3.30;;;22.00;88.00;;;;;;5068288;28;20100;-75
2023/09/12 10:16:49;;;;;;;5.60;3.65;;;22.00;88.00;;;;;;5068596;28;20067;-75
2023/09/12 10:19:35;;;;;;;5.32;3.25;;;22.00;87.90;;;;;;5069935;28;20044;-76
2023/09/12 10:22:18;;;;;;;3.38;2.30;;;22.00;87.90;;;;;;5068813;28;20048;-76
2023/09/12 10:24:45;;;;;;;3.33;2.22;;;22.10;87.70;;;;;;5068510;28;20137;-75
2023/09/12 10:27:13;;;;;;;3.00;1.92;;;22.10;87.70;;;;;;5074052;28;20068;-75
2023/09/12 10:29:39;;;;;;;4.45;2.60;;;22.10;87.50;;;;;;5077325;28;20499;-75
2023/09/12 10:32:05;;;;;;;4.05;2.60;;;22.10;87.40;;;;;;5074259;28;20540;-75
2023/09/12 10:34:32;;;;;;;5.32;3.42;;;22.20;87.30;;;;;;5071061;28;20040;-75
2023/09/12 10:37:00;;;;;;;5.00;3.15;;;22.20;87.10;;;;;;5071583;28;20033;-75
2023/09/12 10:39:28;;;;;;;4.55;2.90;;;22.30;87.00;;;;;;5060073;28;20116;-75
2023/09/12 10:41:55;;;;;;;4.97;3.30;;;22.40;86.90;;;;;;5058207;28;20450;-74
2023/09/12 10:44:22;;;;;;;4.30;2.65;;;22.50;86.70;;;;;;5072774;28;20036;-75
2023/09/12 10:46:49;;;;;;;4.55;2.97;;;22.50;86.30;;;;;;5069585;28;20044;-74
2023/09/12 10:49:15;;;;;;;5.47;3.08;;;22.60;86.20;;;;;;5072002;28;20036;-74
2023/09/12 10:51:44;;;;;;;3.75;2.45;;;22.60;86.10;;;;;;5071897;28;20127;-75
2023/09/12 10:54:23;;;;;;;4.10;2.10;;;22.70;85.90;;;;;;5072201;28;20052;-75
2023/09/12 10:57:06;;;;;;;4.75;2.88;;;22.80;85.60;;;;;;5068221;28;20139;-75
2023/09/12 10:59:35;;;;;;;4.78;2.80;;;22.90;85.30;;;;;;5069919;28;20044;-75
2023/09/12 11:02:27;;;;;;;3.42;2.38;;;22.90;85.10;;;;;;5072129;28;20043;-75
2023/09/12 11:04:53;;;;;;;4.13;2.50;;;23.00;85.10;;;;;;5071031;28;20036;-75
2023/09/12 11:07:43;;;;;;;3.25;2.42;;;23.00;85.00;;;;;;5052367;28;20047;-76
2023/09/12 11:10:20;;;;;;;4.07;2.47;;;23.10;84.90;;;;;;5070077;28;20094;-76
2023/09/12 11:12:49;;;;;;;2.13;1.80;;;23.10;84.70;;;;;;5070217;28;20102;-76
2023/09/12 11:15:15;;;;;;;3.05;1.80;;;23.20;84.70;;;;;;5073228;28;20037;-76
2023/09/12 11:17:42;;;;;;;1.90;1.50;;;23.20;84.60;;;;;;5072828;28;20047;-76
2023/09/12 11:20:10;;;;;;;2.85;2.03;;;23.20;84.50;;;;;;5071773;28;20041;-76
2023/09/12 11:22:39;;;;;;;2.55;2.00;;;23.30;84.30;;;;;;5068848;28;20040;-76
2023/09/12 11:25:16;;;;;;;2.38;1.63;;;23.40;84.10;;;;;;5071932;28;20398;-75
2023/09/12 11:28:04;;;;;;;3.05;2.13;;;23.50;84.70;;;;;;5072640;28;20123;-76
2023/09/12 11:30:31;;;;;;;2.92;1.95;;;23.60;83.70;;;;;;5070903;28;20055;-76
2023/09/12 11:32:57;;;;;;;4.35;2.70;;;23.60;83.50;;;;;;5071534;28;20131;-76
2023/09/12 11:35:25;;;;;;;3.38;2.20;;;23.70;84.00;;;;;;5074310;28;20041;-75
2023/09/12 11:37:53;;;;;;;4.25;2.40;;;23.80;83.30;;;;;;5072132;28;20471;-75
2023/09/12 11:40:42;;;;;;;2.90;2.00;;;23.80;83.20;;;;;;5074719;28;20107;-76
2023/09/12 11:43:26;;;;;;;4.10;2.30;;;23.90;83.10;;;;;;5073743;28;20059;-75
2023/09/12 11:45:53;;;;;;;3.55;2.45;;;24.00;82.90;;;;;;5073295;28;20407;-76
2023/09/12 11:48:20;;;;;;;2.95;2.10;;;24.00;82.60;;;;;;5073143;28;20045;-76
2023/09/12 11:50:55;;;;;;;2.95;2.20;;;24.10;82.50;;;;;;5072844;28;20051;-76
2023/09/12 11:53:25;;;;;;;2.35;1.75;;;24.10;82.30;;;;;;5069472;28;20521;-76
2023/09/12 11:55:53;;;;;;;2.90;1.88;;;24.20;82.30;;;;;;5074710;28;20044;-76
2023/09/12 11:58:20;;;;;;;2.78;1.77;;;24.30;82.20;;;;;;5072362;28;20487;-76
2023/09/12 12:00:48;;;;;;;2.67;1.92;;;24.30;82.10;;;;;;5072643;28;20036;-76
2023/09/12 12:03:38;;;;;;;2.50;1.50;;;24.40;82.00;;;;;;5074258;28;20040;-76
2023/09/12 12:06:04;;;;;;;1.98;1.52;;;24.40;81.80;;;;;;5074453;28;20052;-75
2023/09/12 12:08:31;;;;;;;2.05;1.60;;;24.50;81.80;;;;;;5072250;28;20139;-76
2023/09/12 12:10:58;;;;;;;3.13;2.00;;;24.50;81.60;;;;;;5074308;28;20059;-75
2023/09/12 12:13:24;;;;;;;2.80;1.80;;;24.50;81.50;;;;;;5073986;28;20120;-75
2023/09/12 12:15:50;;;;;;;1.65;1.42;;;24.50;81.30;;;;;;5074487;28;20123;-75
2023/09/12 12:18:16;;;;;;;2.15;1.55;;;24.50;81.50;;;;;;5073965;28;20758;-76
2023/09/12 12:20:42;;;;;;;2.80;1.60;;;24.50;81.50;;;;;;5071411;28;20142;-76
2023/09/12 12:23:08;;;;;;;2.22;1.70;;;24.50;81.30;;;;;;5074033;28;20048;-78
2023/09/12 12:25:35;;;;;;;2.72;1.67;;;24.60;81.30;;;;;;5073955;28;20039;-75
2023/09/12 12:28:02;;;;;;;2.28;1.60;;;24.60;81.20;;;;;;5072022;28;20093;-76
2023/09/12 12:30:31;;;;;;;2.17;1.52;;;24.60;81.10;;;;;;5070928;28;20071;-75
2023/09/12 12:32:57;;;;;;;3.80;1.88;;;24.70;81.00;;;;;;5073685;28;20478;-75
2023/09/12 12:35:23;;;;;;;3.58;2.05;;;24.60;81.00;;;;;;5068853;28;20037;-76
2023/09/12 12:37:50;;;;;;;1.83;1.55;;;24.70;81.00;;;;;;5071997;28;20032;-75
2023/09/12 12:40:17;;;;;;;2.28;1.70;;;24.70;80.80;;;;;;5073778;28;20102;-75
2023/09/12 12:42:46;;;;;;;3.28;2.15;;;24.80;80.70;;;;;;5073671;28;20047;-75
2023/09/12 12:45:14;;;;;;;2.97;1.88;;;24.80;80.50;;;;;;5069171;28;20064;-75
2023/09/12 12:47:41;;;;;;;2.95;2.00;;;24.90;80.50;;;;;;5072131;28;20530;-75
2023/09/12 12:50:12;;;;;;;2.60;1.70;;;25.00;80.30;;;;;;5073535;28;20033;-76
2023/09/12 12:52:39;;;;;;;2.10;1.65;;;25.00;80.10;;;;;;5074079;28;20044;-75